Time;durP1;ratioP1;P1;durP2;ratioP2;P2;SDS_P1;SDS_P2;PMS_P1;PMS_P2;Temp;Humidity;BMP_temperature;BMP_pressure;BME280_temperature;BME280_humidity;BME280_pressure;Samples;Min_cycle;Max_cycle;Signal;HPM_P1;HPM_P2
2022/09/06 00:01:32;;;;;;;6.38;5.78;;;;;;;;;;5054842;28;20285;-75
2022/09/06 00:04:00;;;;;;;6.57;5.70;;;;;;;;;;5054972;28;20644;-75
2022/09/06 00:06:28;;;;;;;7.30;5.82;;;;;;;;;;5054082;28;20247;-75
2022/09/06 00:08:57;;;;;;;6.90;5.60;;;;;;;;;;5042864;28;20200;-76
2022/09/06 00:11:27;;;;;;;7.82;5.85;;;;;;;;;;5050896;28;20601;-76
2022/09/06 00:13:55;;;;;;;6.85;6.22;;;;;;;;;;5050875;28;20191;-75
2022/09/06 00:16:24;;;;;;;7.15;6.35;;;;;;;;;;5053947;28;20644;-75
2022/09/06 00:18:57;;;;;;;6.22;5.63;;;;;;;;;;5054798;28;20577;-75
2022/09/06 00:21:27;;;;;;;7.07;6.30;;;;;;;;;;5054705;28;20231;-75
2022/09/06 00:23:56;;;;;;;6.22;5.72;;;;;;;;;;5054108;28;20200;-75
2022/09/06 00:26:24;;;;;;;6.70;6.10;;;;;;;;;;5054397;28;20206;-74
2022/09/06 00:28:54;;;;;;;7.00;5.82;;;;;;;;;;5054019;28;20207;-75
2022/09/06 00:31:23;;;;;;;7.80;6.00;;;;;;;;;;5034237;28;20232;-75
2022/09/06 00:33:52;;;;;;;7.13;6.30;;;;;;;;;;5034396;28;20214;-75
2022/09/06 00:36:21;;;;;;;7.15;6.55;;;;;;;;;;5034407;28;20207;-74
2022/09/06 00:38:50;;;;;;;7.85;7.15;;;;;;;;;;5053283;28;20231;-75
2022/09/06 00:41:18;;;;;;;7.00;6.30;;;;;;;;;;5053795;28;20218;-75
2022/09/06 00:43:47;;;;;;;7.43;6.82;;;;;;;;;;5053902;28;20216;-74
2022/09/06 00:46:19;;;;;;;8.10;6.57;;;;;;;;;;5053357;28;20253;-75
2022/09/06 00:48:49;;;;;;;8.60;6.45;;;;;;;;;;5054086;28;20199;-76
2022/09/06 00:51:18;;;;;;;7.53;6.93;;;;;;;;;;5054119;28;20253;-75
2022/09/06 00:53:47;;;;;;;7.97;7.18;;;;;;;;;;5054342;28;20210;-74
2022/09/06 00:56:15;;;;;;;8.40;7.25;;;;;;;;;;5054178;28;20203;-75
2022/09/06 00:58:44;;;;;;;7.85;7.15;;;;;;;;;;5053840;28;20203;-75
2022/09/06 01:01:12;;;;;;;7.90;7.20;;;;;;;;;;5053579;28;20226;-75
2022/09/06 01:03:43;;;;;;;7.82;7.13;;;;;;;;;;5053437;28;20221;-75
2022/09/06 01:06:18;;;;;;;8.07;7.38;;;;;;;;;;5053765;28;20203;-75
2022/09/06 01:08:54;;;;;;;7.90;7.20;;;;;;;;;;5053747;28;20198;-74
2022/09/06 01:11:27;;;;;;;8.88;7.90;;;;;;;;;;5053364;28;20741;-75
2022/09/06 01:14:00;;;;;;;7.80;7.20;;;;;;;;;;5053668;28;20751;-76
2022/09/06 01:16:34;;;;;;;8.10;7.30;;;;;;;;;;5053941;28;20198;-75
2022/09/06 01:19:14;;;;;;;8.23;7.38;;;;;;;;;;5053377;28;20650;-75
2022/09/06 01:21:47;;;;;;;8.73;7.82;;;;;;;;;;5053474;28;20845;-75
2022/09/06 01:24:29;;;;;;;11.73;7.68;;;;;;;;;;5044951;28;20203;-75
2022/09/06 01:27:09;;;;;;;8.38;7.57;;;;;;;;;;5033382;28;20192;-75
2022/09/06 01:29:44;;;;;;;8.50;7.70;;;;;;;;;;5033814;28;20183;-75
2022/09/06 01:32:18;;;;;;;8.95;8.15;;;;;;;;;;5047670;28;20634;-75
2022/09/06 01:34:50;;;;;;;8.93;8.02;;;;;;;;;;5053145;28;20191;-75
2022/09/06 01:37:20;;;;;;;9.13;8.27;;;;;;;;;;5053263;28;20694;-75
2022/09/06 01:39:48;;;;;;;9.30;8.38;;;;;;;;;;5033357;28;20689;-75
2022/09/06 01:42:19;;;;;;;9.15;8.25;;;;;;;;;;5049557;28;20239;-75
2022/09/06 01:44:51;;;;;;;9.13;8.23;;;;;;;;;;5050821;28;20210;-75
2022/09/06 01:47:30;;;;;;;9.15;8.38;;;;;;;;;;5033580;28;20250;-75
2022/09/06 01:50:03;;;;;;;9.48;8.48;;;;;;;;;;5037879;28;20198;-74
2022/09/06 01:52:34;;;;;;;9.80;9.00;;;;;;;;;;5049665;28;20253;-75
2022/09/06 01:55:08;;;;;;;9.57;8.40;;;;;;;;;;5053245;28;20183;-75
2022/09/06 01:57:44;;;;;;;9.70;8.65;;;;;;;;;;5050968;28;20187;-75
2022/09/06 02:00:15;;;;;;;9.38;8.48;;;;;;;;;;5049264;28;20668;-74
2022/09/06 02:02:51;;;;;;;10.07;8.93;;;;;;;;;;5052851;28;20284;-75
2022/09/06 02:05:23;;;;;;;9.82;8.90;;;;;;;;;;5052676;28;20202;-75
2022/09/06 02:07:53;;;;;;;10.32;9.30;;;;;;;;;;5053362;28;20245;-74
2022/09/06 02:10:24;;;;;;;9.60;8.80;;;;;;;;;;5053127;28;20219;-75
2022/09/06 02:12:54;;;;;;;9.52;8.60;;;;;;;;;;5052597;28;20652;-75
2022/09/06 02:15:25;;;;;;;10.02;9.10;;;;;;;;;;5053798;28;20258;-75
2022/09/06 02:17:56;;;;;;;10.10;9.10;;;;;;;;;;5056646;28;20195;-75
2022/09/06 02:20:25;;;;;;;11.15;8.55;;;;;;;;;;5056787;28;20227;-76
2022/09/06 02:22:56;;;;;;;10.43;9.40;;;;;;;;;;5057225;28;20708;-76
2022/09/06 02:25:27;;;;;;;10.10;9.30;;;;;;;;;;5055815;28;20207;-75
2022/09/06 02:27:56;;;;;;;10.10;9.20;;;;;;;;;;5056312;28;20187;-75
2022/09/06 02:30:26;;;;;;;9.45;8.60;;;;;;;;;;5056310;28;20234;-75
2022/09/06 02:32:57;;;;;;;10.27;9.40;;;;;;;;;;5056838;28;20207;-76
2022/09/06 02:35:26;;;;;;;10.38;8.85;;;;;;;;;;5056617;28;20207;-76
2022/09/06 02:37:55;;;;;;;9.52;8.63;;;;;;;;;;5056799;28;20207;-75
2022/09/06 02:40:23;;;;;;;9.98;9.18;;;;;;;;;;5055957;28;20227;-75
2022/09/06 02:42:52;;;;;;;9.88;9.02;;;;;;;;;;5056233;28;20297;-75
2022/09/06 02:45:21;;;;;;;9.93;9.20;;;;;;;;;;5056284;28;20298;-75
2022/09/06 02:47:51;;;;;;;9.75;8.85;;;;;;;;;;5055871;28;20199;-75
2022/09/06 02:50:19;;;;;;;10.55;9.60;;;;;;;;;;5056076;28;20251;-75
2022/09/06 02:53:01;;;;;;;9.52;8.73;;;;;;;;;;5055982;28;20257;-74
2022/09/06 02:55:29;;;;;;;10.13;9.18;;;;;;;;;;5044814;28;20203;-72
2022/09/06 02:57:58;;;;;;;10.07;9.18;;;;;;;;;;5044573;28;20206;-75
2022/09/06 03:00:27;;;;;;;10.48;9.43;;;;;;;;;;5055906;28;20598;-75
2022/09/06 03:02:56;;;;;;;9.98;8.98;;;;;;;;;;5056106;28;20682;-75
2022/09/06 03:05:25;;;;;;;10.23;9.32;;;;;;;;;;5056110;28;20713;-75
2022/09/06 03:07:54;;;;;;;9.77;8.77;;;;;;;;;;5055721;28;20215;-75
2022/09/06 03:10:25;;;;;;;10.82;9.73;;;;;;;;;;5056015;28;20235;-75
2022/09/06 03:12:53;;;;;;;9.88;8.98;;;;;;;;;;5055739;28;20618;-75
2022/09/06 03:15:22;;;;;;;11.27;9.43;;;;;;;;;;5055909;28;20253;-75
2022/09/06 03:17:50;;;;;;;10.07;9.07;;;;;;;;;;5056092;28;20663;-75
2022/09/06 03:20:23;;;;;;;10.38;9.48;;;;;;;;;;5053598;28;20696;-75
2022/09/06 03:22:54;;;;;;;10.75;9.68;;;;;;;;;;5039160;28;20209;-75
2022/09/06 03:25:24;;;;;;;10.32;9.32;;;;;;;;;;5046900;28;20207;-75
2022/09/06 03:27:53;;;;;;;10.27;9.18;;;;;;;;;;5044085;28;20579;-74
2022/09/06 03:30:21;;;;;;;10.35;9.45;;;;;;;;;;5035634;28;20250;-75
2022/09/06 03:32:49;;;;;;;10.00;9.10;;;;;;;;;;5042164;28;20196;-75
2022/09/06 03:35:18;;;;;;;10.38;9.48;;;;;;;;;;5054228;28;20237;-75
2022/09/06 03:37:48;;;;;;;11.18;9.85;;;;;;;;;;5037501;28;20645;-75
2022/09/06 03:40:16;;;;;;;10.48;9.48;;;;;;;;;;5049967;28;20231;-75
2022/09/06 03:42:45;;;;;;;10.05;9.07;;;;;;;;;;5055483;28;20260;-75
2022/09/06 03:45:13;;;;;;;10.32;9.35;;;;;;;;;;5055289;28;20544;-74
2022/09/06 03:47:42;;;;;;;10.40;9.40;;;;;;;;;;5054873;28;20281;-75
2022/09/06 03:50:10;;;;;;;10.23;9.23;;;;;;;;;;5055293;28;20227;-76
2022/09/06 03:52:39;;;;;;;10.48;9.35;;;;;;;;;;5055188;28;20199;-76
2022/09/06 03:55:10;;;;;;;10.50;9.18;;;;;;;;;;5055007;28;20257;-76
2022/09/06 03:57:39;;;;;;;9.85;8.95;;;;;;;;;;5043504;28;20604;-77
2022/09/06 04:00:08;;;;;;;9.95;9.00;;;;;;;;;;5055372;28;20219;-77
2022/09/06 04:02:36;;;;;;;10.25;9.20;;;;;;;;;;5055916;28;20683;-77
2022/09/06 04:05:05;;;;;;;9.63;8.80;;;;;;;;;;5054663;28;20625;-77
2022/09/06 04:07:33;;;;;;;11.43;8.95;;;;;;;;;;5054793;28;20645;-75
2022/09/06 04:10:02;;;;;;;9.82;9.02;;;;;;;;;;5055014;28;20207;-77
2022/09/06 04:12:33;;;;;;;10.45;9.40;;;;;;;;;;5054506;28;20215;-77
2022/09/06 04:15:02;;;;;;;10.10;9.20;;;;;;;;;;5054468;28;20199;-77
2022/09/06 04:17:30;;;;;;;10.20;9.20;;;;;;;;;;5054618;28;20207;-77
2022/09/06 04:19:59;;;;;;;10.13;9.13;;;;;;;;;;5054441;28;20632;-77
2022/09/06 04:22:27;;;;;;;9.90;9.00;;;;;;;;;;5054448;28;20227;-76
2022/09/06 04:24:57;;;;;;;9.85;9.05;;;;;;;;;;5054679;28;20195;-77
2022/09/06 04:27:25;;;;;;;10.18;9.27;;;;;;;;;;5043469;28;20661;-78
2022/09/06 04:29:55;;;;;;;9.40;8.60;;;;;;;;;;5051401;28;20215;-77
2022/09/06 04:32:23;;;;;;;9.97;8.97;;;;;;;;;;5054833;28;20199;-77
2022/09/06 04:34:52;;;;;;;9.25;8.38;;;;;;;;;;5054278;28;20203;-77
2022/09/06 04:37:20;;;;;;;9.55;8.77;;;;;;;;;;5053882;28;20207;-77
2022/09/06 04:39:49;;;;;;;9.63;8.70;;;;;;;;;;5054037;28;20207;-76
2022/09/06 04:42:17;;;;;;;9.40;8.50;;;;;;;;;;5053882;28;20265;-77
2022/09/06 04:44:46;;;;;;;9.82;8.82;;;;;;;;;;5054942;28;20195;-77
2022/09/06 04:47:18;;;;;;;9.33;8.43;;;;;;;;;;5054009;28;20273;-77
2022/09/06 04:49:47;;;;;;;10.25;9.27;;;;;;;;;;5054448;28;20668;-77
2022/09/06 04:52:15;;;;;;;9.30;8.50;;;;;;;;;;5054107;28;20195;-77
2022/09/06 04:54:44;;;;;;;9.53;8.63;;;;;;;;;;5054359;28;20269;-77
2022/09/06 04:57:13;;;;;;;9.90;8.90;;;;;;;;;;5053997;28;20277;-77
2022/09/06 04:59:41;;;;;;;9.10;8.30;;;;;;;;;;5053922;28;20198;-77
2022/09/06 05:02:09;;;;;;;8.85;8.02;;;;;;;;;;5053599;28;20714;-77
2022/09/06 05:04:39;;;;;;;9.68;8.68;;;;;;;;;;5053778;28;20225;-77
2022/09/06 05:07:08;;;;;;;9.10;8.30;;;;;;;;;;5053510;28;20210;-76
2022/09/06 05:09:37;;;;;;;9.07;8.17;;;;;;;;;;5053658;28;20210;-77
2022/09/06 05:12:06;;;;;;;9.17;8.40;;;;;;;;;;5053510;28;20708;-77
2022/09/06 05:14:36;;;;;;;8.40;7.70;;;;;;;;;;5053377;28;20199;-76
2022/09/06 05:17:05;;;;;;;11.17;8.17;;;;;;;;;;5040436;28;20184;-76
2022/09/06 05:19:34;;;;;;;9.27;8.33;;;;;;;;;;5033909;28;20605;-77
2022/09/06 05:22:03;;;;;;;9.77;8.30;;;;;;;;;;5049352;28;20672;-76
2022/09/06 05:24:32;;;;;;;8.98;8.25;;;;;;;;;;5053754;28;20199;-76
2022/09/06 05:27:03;;;;;;;12.23;8.30;;;;;;;;;;5053062;28;20207;-76
2022/09/06 05:29:31;;;;;;;8.67;7.77;;;;;;;;;;5054121;28;20569;-77
2022/09/06 05:32:00;;;;;;;9.20;7.97;;;;;;;;;;5053148;28;20226;-77
2022/09/06 05:34:28;;;;;;;10.83;8.40;;;;;;;;;;5053304;28;20203;-76
2022/09/06 05:36:57;;;;;;;8.95;8.02;;;;;;;;;;5053420;28;20200;-75
2022/09/06 05:39:27;;;;;;;9.60;7.65;;;;;;;;;;5053471;28;20213;-75
2022/09/06 05:41:55;;;;;;;8.53;7.80;;;;;;;;;;5042680;28;20288;-74
2022/09/06 05:44:24;;;;;;;9.47;8.57;;;;;;;;;;5040630;28;20620;-74
2022/09/06 05:46:52;;;;;;;8.50;7.77;;;;;;;;;;5053720;28;20675;-75
2022/09/06 05:49:20;;;;;;;8.70;7.83;;;;;;;;;;5052635;28;20218;-74
2022/09/06 05:51:51;;;;;;;8.50;7.60;;;;;;;;;;5052616;28;20226;-75
2022/09/06 05:54:19;;;;;;;9.00;7.57;;;;;;;;;;5041630;28;20203;-77
2022/09/06 05:56:49;;;;;;;9.73;7.37;;;;;;;;;;5047175;28;20256;-74
2022/09/06 05:59:17;;;;;;;8.10;7.30;;;;;;;;;;5053166;28;20203;-77
2022/09/06 06:01:49;;;;;;;8.40;7.53;;;;;;;;;;5052951;28;20310;-77
2022/09/06 06:04:18;;;;;;;8.00;7.30;;;;;;;;;;5053449;28;20231;-77
2022/09/06 06:06:47;;;;;;;9.80;7.60;;;;;;;;;;5053384;28;20656;-77
2022/09/06 06:09:16;;;;;;;8.80;7.57;;;;;;;;;;5053420;28;20221;-77
2022/09/06 06:11:45;;;;;;;8.70;7.80;;;;;;;;;;5052682;28;20276;-75
2022/09/06 06:14:14;;;;;;;8.70;7.80;;;;;;;;;;5053419;28;20203;-75
2022/09/06 06:16:43;;;;;;;11.20;7.90;;;;;;;;;;5050261;28;20215;-75
2022/09/06 06:19:11;;;;;;;8.60;7.90;;;;;;;;;;5051935;28;20206;-75
2022/09/06 06:21:40;;;;;;;9.23;8.43;;;;;;;;;;5033486;28;20228;-76
2022/09/06 06:24:08;;;;;;;9.90;9.00;;;;;;;;;;5033107;28;20219;-76
2022/09/06 06:26:37;;;;;;;9.73;8.70;;;;;;;;;;5033249;28;20200;-76
2022/09/06 06:29:08;;;;;;;9.53;8.53;;;;;;;;;;5038572;28;20202;-76
2022/09/06 06:31:38;;;;;;;9.63;8.80;;;;;;;;;;5053988;28;20219;-75
2022/09/06 06:34:07;;;;;;;11.53;10.43;;;;;;;;;;5053692;28;20633;-75
2022/09/06 06:36:37;;;;;;;12.33;9.70;;;;;;;;;;5052246;28;20230;-76
2022/09/06 06:39:07;;;;;;;11.00;10.00;;;;;;;;;;5052893;28;20204;-76
2022/09/06 06:41:36;;;;;;;11.10;10.03;;;;;;;;;;5052848;28;20227;-75
2022/09/06 06:44:06;;;;;;;10.77;9.77;;;;;;;;;;5052374;28;20202;-75
2022/09/06 06:46:35;;;;;;;10.73;9.83;;;;;;;;;;5053172;28;20199;-77
2022/09/06 06:49:05;;;;;;;11.47;10.47;;;;;;;;;;5054257;28;20207;-78
2022/09/06 06:51:35;;;;;;;10.83;9.77;;;;;;;;;;5054391;28;20219;-77
2022/09/06 06:54:04;;;;;;;12.13;10.93;;;;;;;;;;5053855;28;20198;-77
2022/09/06 06:56:34;;;;;;;12.70;11.53;;;;;;;;;;5053265;28;20249;-75
2022/09/06 06:59:04;;;;;;;12.30;11.20;;;;;;;;;;5051960;28;20207;-76
2022/09/06 07:01:33;;;;;;;11.60;10.70;;;;;;;;;;5053495;28;20230;-75
2022/09/06 07:04:02;;;;;;;12.33;11.20;;;;;;;;;;5055856;28;20302;-75
2022/09/06 07:06:32;;;;;;;11.70;10.70;;;;;;;;;;5056161;28;20316;-75
2022/09/06 07:09:21;;;;;;;11.43;10.40;;;;;;;;;;5055699;28;20258;-75
2022/09/06 07:11:50;;;;;;;12.50;11.25;;;;;;;;;;5055507;28;20242;-75
2022/09/06 07:14:19;;;;;;;11.17;10.17;;;;;;;;;;5055533;28;20199;-75
2022/09/06 07:16:48;;;;;;;11.77;10.70;;;;;;;;;;5055754;28;20222;-75
2022/09/06 07:19:16;;;;;;;10.83;9.73;;;;;;;;;;5056343;28;20199;-77
2022/09/06 07:22:07;;;;;;;11.67;10.20;;;;;;;;;;5055628;28;20289;-75
2022/09/06 07:24:39;;;;;;;11.10;9.82;;;;;;;;;;5055718;28;20190;-77
2022/09/06 07:27:07;;;;;;;12.27;10.00;;;;;;;;;;5054386;28;20557;-75
2022/09/06 07:29:56;;;;;;;10.53;9.53;;;;;;;;;;5056226;28;20203;-77
2022/09/06 07:32:24;;;;;;;10.00;9.10;;;;;;;;;;5055804;28;20236;-77
2022/09/06 07:34:52;;;;;;;10.57;9.67;;;;;;;;;;5056793;28;20229;-78
2022/09/06 07:37:22;;;;;;;10.63;9.67;;;;;;;;;;5047918;28;20277;-77
2022/09/06 07:39:51;;;;;;;10.73;9.77;;;;;;;;;;5056185;28;20207;-77
2022/09/06 07:42:19;;;;;;;10.33;9.27;;;;;;;;;;5055133;28;20246;-75
2022/09/06 07:44:47;;;;;;;10.63;9.73;;;;;;;;;;5055494;28;20206;-76
2022/09/06 07:47:16;;;;;;;11.97;9.40;;;;;;;;;;5055470;28;20207;-76
2022/09/06 07:50:05;;;;;;;10.37;9.37;;;;;;;;;;5054881;28;20292;-76
2022/09/06 07:52:55;;;;;;;10.60;9.50;;;;;;;;;;5054905;28;20615;-75
2022/09/06 07:55:44;;;;;;;10.37;9.37;;;;;;;;;;5055587;28;20227;-76
2022/09/06 07:58:12;;;;;;;11.13;9.57;;;;;;;;;;5055111;28;20289;-76
2022/09/06 08:00:40;;;;;;;10.43;9.43;;;;;;;;;;5055322;28;20261;-77
2022/09/06 08:03:09;;;;;;;10.97;9.83;;;;;;;;;;5055521;28;20219;-76
2022/09/06 08:05:37;;;;;;;10.90;9.80;;;;;;;;;;5055159;28;20612;-75
2022/09/06 08:08:27;;;;;;;11.10;9.83;;;;;;;;;;5054471;28;20238;-76
2022/09/06 08:11:15;;;;;;;10.87;9.67;;;;;;;;;;5053523;28;20243;-76
2022/09/06 08:13:44;;;;;;;9.53;8.63;;;;;;;;;;5054297;28;20203;-76
2022/09/06 08:16:14;;;;;;;10.53;9.53;;;;;;;;;;5054723;28;20202;-76
2022/09/06 08:18:43;;;;;;;10.27;9.23;;;;;;;;;;5054356;28;20210;-76
2022/09/06 08:21:12;;;;;;;10.13;9.13;;;;;;;;;;5054607;28;20317;-76
2022/09/06 08:23:45;;;;;;;9.97;9.00;;;;;;;;;;5054826;28;20289;-76
2022/09/06 08:26:13;;;;;;;10.80;9.70;;;;;;;;;;5055156;28;20191;-76
2022/09/06 08:28:42;;;;;;;9.90;9.00;;;;;;;;;;5054843;28;20561;-76
2022/09/06 08:31:11;;;;;;;10.10;9.20;;;;;;;;;;5054595;28;20233;-77
2022/09/06 08:33:40;;;;;;;11.37;8.90;;;;;;;;;;5054384;28;20664;-77
2022/09/06 08:36:09;;;;;;;9.52;8.73;;;;;;;;;;5054432;28;20203;-76
2022/09/06 08:38:38;;;;;;;10.20;9.30;;;;;;;;;;5054882;28;20256;-76
2022/09/06 08:41:09;;;;;;;11.23;9.10;;;;;;;;;;5054354;28;20227;-77
2022/09/06 08:43:38;;;;;;;11.53;8.63;;;;;;;;;;5054631;28;20214;-76
2022/09/06 08:46:08;;;;;;;9.38;8.50;;;;;;;;;;5054131;28;20203;-76
2022/09/06 08:48:38;;;;;;;10.18;9.18;;;;;;;;;;5046168;28;20611;-76
2022/09/06 08:51:14;;;;;;;9.07;8.30;;;;;;;;;;5034065;28;20247;-76
2022/09/06 08:53:45;;;;;;;9.40;8.60;;;;;;;;;;5033972;28;20192;-75
2022/09/06 08:56:17;;;;;;;9.10;8.30;;;;;;;;;;5034151;28;20261;-76
2022/09/06 08:58:53;;;;;;;9.38;8.30;;;;;;;;;;5048267;28;20199;-76
2022/09/06 09:01:24;;;;;;;9.13;8.27;;;;;;;;;;5053623;28;20229;-76
2022/09/06 09:03:54;;;;;;;9.63;8.63;;;;;;;;;;5053484;28;20214;-75
2022/09/06 09:06:24;;;;;;;9.75;8.73;;;;;;;;;;5053877;28;20214;-75
2022/09/06 09:08:57;;;;;;;9.40;8.52;;;;;;;;;;5034057;28;20545;-75
2022/09/06 09:11:28;;;;;;;8.57;7.78;;;;;;;;;;5033837;28;20652;-75
2022/09/06 09:14:00;;;;;;;8.90;8.10;;;;;;;;;;5033913;28;20245;-76
2022/09/06 09:16:28;;;;;;;8.85;8.00;;;;;;;;;;5049636;28;20191;-75
2022/09/06 09:18:59;;;;;;;9.68;8.73;;;;;;;;;;5053596;28;20205;-76
2022/09/06 09:21:28;;;;;;;9.57;8.68;;;;;;;;;;5054364;28;20230;-78
2022/09/06 09:23:59;;;;;;;10.50;8.05;;;;;;;;;;5053379;28;20239;-74
2022/09/06 09:26:31;;;;;;;9.52;8.55;;;;;;;;;;5053757;28;20211;-75
2022/09/06 09:29:03;;;;;;;9.50;8.57;;;;;;;;;;5054375;28;20191;-76
2022/09/06 09:31:36;;;;;;;9.70;8.68;;;;;;;;;;5053727;28;20219;-76
2022/09/06 09:34:04;;;;;;;9.88;8.90;;;;;;;;;;5053231;28;20228;-76
2022/09/06 09:36:33;;;;;;;9.52;8.60;;;;;;;;;;5053627;28;20205;-75
2022/09/06 09:39:09;;;;;;;9.93;9.00;;;;;;;;;;5053628;28;20223;-76
2022/09/06 09:41:39;;;;;;;10.13;9.15;;;;;;;;;;5053724;28;20237;-75
2022/09/06 09:44:10;;;;;;;11.88;9.82;;;;;;;;;;5053320;28;20664;-76
2022/09/06 09:46:40;;;;;;;10.55;9.35;;;;;;;;;;5053476;28;20187;-76
2022/09/06 09:49:10;;;;;;;9.82;9.02;;;;;;;;;;5053762;28;20187;-76
2022/09/06 09:51:39;;;;;;;10.43;9.25;;;;;;;;;;5053488;28;20223;-75
2022/09/06 09:54:08;;;;;;;12.25;9.43;;;;;;;;;;5052914;28;20195;-76
2022/09/06 09:56:49;;;;;;;10.23;9.27;;;;;;;;;;5053197;28;20671;-75
2022/09/06 09:59:19;;;;;;;10.20;9.20;;;;;;;;;;5052970;28;20236;-74
2022/09/06 10:01:48;;;;;;;10.07;9.10;;;;;;;;;;5053214;28;20704;-75
2022/09/06 10:04:21;;;;;;;10.05;9.10;;;;;;;;;;5053106;28;20277;-75
2022/09/06 10:07:11;;;;;;;9.90;9.00;;;;;;;;;;5052738;28;20268;-76
2022/09/06 10:09:41;;;;;;;9.38;8.48;;;;;;;;;;5052846;28;20260;-75
2022/09/06 10:12:14;;;;;;;9.38;8.57;;;;;;;;;;5052506;28;20245;-75
2022/09/06 10:14:43;;;;;;;9.05;8.20;;;;;;;;;;5053044;28;20191;-75
2022/09/06 10:17:19;;;;;;;9.80;8.25;;;;;;;;;;5053166;28;20660;-75
2022/09/06 10:19:48;;;;;;;9.98;8.20;;;;;;;;;;5053084;28;20187;-75
2022/09/06 10:22:24;;;;;;;9.13;7.97;;;;;;;;;;5052739;28;20203;-75
2022/09/06 10:25:10;;;;;;;8.75;7.88;;;;;;;;;;5052863;28;20218;-74
2022/09/06 10:27:42;;;;;;;8.23;7.53;;;;;;;;;;5053208;28;20206;-75
2022/09/06 10:30:33;;;;;;;8.10;7.30;;;;;;;;;;5052163;28;20219;-75
2022/09/06 10:33:04;;;;;;;7.20;6.60;;;;;;;;;;5052919;28;20243;-76
2022/09/06 10:35:35;;;;;;;7.53;6.80;;;;;;;;;;5052789;28;20629;-75
2022/09/06 10:38:14;;;;;;;6.90;6.30;;;;;;;;;;5056201;28;20203;-74
2022/09/06 10:40:46;;;;;;;8.48;6.82;;;;;;;;;;5055885;28;20219;-75
2022/09/06 10:43:18;;;;;;;7.80;7.07;;;;;;;;;;5056537;28;20206;-75
2022/09/06 10:45:50;;;;;;;7.63;7.03;;;;;;;;;;5056188;28;20227;-75
2022/09/06 10:48:22;;;;;;;8.82;7.30;;;;;;;;;;5036693;28;20215;-76
2022/09/06 10:50:52;;;;;;;8.82;7.03;;;;;;;;;;5036534;28;20224;-76
2022/09/06 10:53:29;;;;;;;8.05;7.38;;;;;;;;;;5036718;28;20702;-76
2022/09/06 10:56:02;;;;;;;7.75;7.05;;;;;;;;;;5038513;28;20204;-76
2022/09/06 10:58:33;;;;;;;7.75;7.05;;;;;;;;;;5056133;28;20191;-75
2022/09/06 11:01:25;;;;;;;7.50;6.80;;;;;;;;;;5056541;28;20639;-75
2022/09/06 11:03:57;;;;;;;7.45;6.85;;;;;;;;;;5055934;28;20233;-76
2022/09/06 11:06:35;;;;;;;8.70;6.90;;;;;;;;;;5056113;28;20203;-75
2022/09/06 11:09:07;;;;;;;6.75;6.15;;;;;;;;;;5056147;28;20192;-75
2022/09/06 11:11:41;;;;;;;8.30;6.65;;;;;;;;;;5055784;28;20231;-76
2022/09/06 11:14:12;;;;;;;8.07;7.30;;;;;;;;;;5055600;28;20199;-75
2022/09/06 11:16:44;;;;;;;8.90;6.55;;;;;;;;;;5056229;28;20202;-75
2022/09/06 11:19:16;;;;;;;7.82;7.20;;;;;;;;;;5056061;28;20187;-75
2022/09/06 11:21:54;;;;;;;7.95;6.95;;;;;;;;;;5055711;28;20231;-75
2022/09/06 11:24:30;;;;;;;8.57;6.47;;;;;;;;;;5055345;28;20191;-76
2022/09/06 11:27:01;;;;;;;7.63;6.90;;;;;;;;;;5055563;28;20687;-75
2022/09/06 11:29:32;;;;;;;7.65;7.03;;;;;;;;;;5055559;28;20218;-76
2022/09/06 11:32:01;;;;;;;7.28;6.65;;;;;;;;;;5047589;28;20703;-75
2022/09/06 11:34:52;;;;;;;8.20;7.40;;;;;;;;;;5035466;28;20187;-75
2022/09/06 11:37:25;;;;;;;8.15;7.45;;;;;;;;;;5035762;28;20192;-75
2022/09/06 11:40:05;;;;;;;9.35;6.80;;;;;;;;;;5041402;28;20194;-76
2022/09/06 11:43:10;;;;;;;7.85;7.15;;;;;;;;;;5049315;28;20203;-75
2022/09/06 11:45:42;;;;;;;7.65;6.90;;;;;;;;;;5055028;28;20248;-75
2022/09/06 11:48:33;;;;;;;7.47;6.82;;;;;;;;;;5054294;28;20188;-76
2022/09/06 11:51:05;;;;;;;7.70;6.43;;;;;;;;;;5055321;28;20276;-76
2022/09/06 11:53:35;;;;;;;7.18;6.57;;;;;;;;;;5055598;28;20194;-75
2022/09/06 11:56:24;;;;;;;8.52;7.72;;;;;;;;;;5055005;28;20188;-76
2022/09/06 11:58:56;;;;;;;9.95;7.13;;;;;;;;;;5037124;28;20188;-75
2022/09/06 12:01:37;;;;;;;7.45;6.80;;;;;;;;;;5054815;28;20223;-76
2022/09/06 12:04:07;;;;;;;8.40;7.13;;;;;;;;;;5055055;28;20191;-75
2022/09/06 12:06:39;;;;;;;7.55;6.85;;;;;;;;;;5055050;28;20735;-77
2022/09/06 12:09:26;;;;;;;7.68;7.00;;;;;;;;;;5054946;28;20179;-74
2022/09/06 12:11:55;;;;;;;9.02;6.22;;;;;;;;;;5054523;28;20235;-75
2022/09/06 12:14:29;;;;;;;9.02;6.60;;;;;;;;;;5054638;28;20253;-75
2022/09/06 12:17:27;;;;;;;8.68;7.35;;;;;;;;;;5054850;28;20580;-76
2022/09/06 12:20:04;;;;;;;8.18;6.75;;;;;;;;;;5054326;28;20191;-75
2022/09/06 12:23:03;;;;;;;7.05;6.18;;;;;;;;;;5054612;28;20269;-76
2022/09/06 12:26:05;;;;;;;8.10;7.30;;;;;;;;;;5044772;28;20207;-75
2022/09/06 12:28:35;;;;;;;8.02;7.22;;;;;;;;;;5054680;28;20187;-75
2022/09/06 12:31:19;;;;;;;7.25;6.45;;;;;;;;;;5054638;28;20218;-75
2022/09/06 12:33:47;;;;;;;7.50;6.75;;;;;;;;;;5052551;28;20195;-73
2022/09/06 12:36:20;;;;;;;6.75;6.15;;;;;;;;;;5053997;28;20191;-75
2022/09/06 12:38:56;;;;;;;7.18;6.47;;;;;;;;;;5053966;28;20253;-75
2022/09/06 12:41:25;;;;;;;8.88;6.38;;;;;;;;;;5053770;28;20230;-75
2022/09/06 12:43:56;;;;;;;9.65;6.47;;;;;;;;;;5053670;28;20199;-75
2022/09/06 12:46:28;;;;;;;7.80;5.10;;;;;;;;;;5053912;28;20221;-75
2022/09/06 12:49:07;;;;;;;8.02;6.18;;;;;;;;;;5053672;28;20249;-75
2022/09/06 12:51:38;;;;;;;7.25;6.50;;;;;;;;;;5054592;28;20226;-78
2022/09/06 12:54:16;;;;;;;9.15;6.43;;;;;;;;;;5054338;28;20195;-75
2022/09/06 12:56:45;;;;;;;8.50;5.95;;;;;;;;;;5053980;28;20656;-78
2022/09/06 12:59:15;;;;;;;8.93;6.50;;;;;;;;;;5053746;28;20676;-74
2022/09/06 13:01:50;;;;;;;7.35;6.13;;;;;;;;;;5053598;28;20223;-75
2022/09/06 13:04:23;;;;;;;6.00;5.47;;;;;;;;;;5036784;28;20265;-74
2022/09/06 13:06:53;;;;;;;8.48;5.85;;;;;;;;;;5052417;28;20223;-75
2022/09/06 13:09:22;;;;;;;7.35;5.40;;;;;;;;;;5054648;28;20214;-75
2022/09/06 13:11:51;;;;;;;6.15;5.55;;;;;;;;;;5047709;28;20301;-74
2022/09/06 13:14:22;;;;;;;5.75;5.25;;;;;;;;;;5053134;28;20265;-75
2022/09/06 13:16:51;;;;;;;6.85;4.82;;;;;;;;;;5041863;28;20191;-75
2022/09/06 13:19:30;;;;;;;7.75;5.32;;;;;;;;;;5053372;28;20196;-76
2022/09/06 13:22:00;;;;;;;11.02;5.60;;;;;;;;;;5053725;28;20235;-75
2022/09/06 13:24:40;;;;;;;7.03;5.25;;;;;;;;;;5053331;28;20192;-75
2022/09/06 13:27:23;;;;;;;5.82;5.20;;;;;;;;;;5053304;28;20322;-76
2022/09/06 13:29:55;;;;;;;6.07;5.18;;;;;;;;;;5053315;28;20203;-77
2022/09/06 13:32:24;;;;;;;6.75;4.90;;;;;;;;;;5053470;28;20232;-78
2022/09/06 13:34:55;;;;;;;7.80;5.00;;;;;;;;;;5053638;28;20257;-77
2022/09/06 13:37:26;;;;;;;6.20;5.60;;;;;;;;;;5052622;28;20694;-77
2022/09/06 13:39:58;;;;;;;7.28;5.20;;;;;;;;;;5033664;28;20699;-75
2022/09/06 13:42:29;;;;;;;8.55;5.35;;;;;;;;;;5036386;28;20285;-75
2022/09/06 13:44:58;;;;;;;5.95;5.40;;;;;;;;;;5053200;28;20629;-76
2022/09/06 13:47:29;;;;;;;5.95;5.18;;;;;;;;;;5053180;28;20309;-76
2022/09/06 13:49:58;;;;;;;8.20;5.38;;;;;;;;;;5052212;28;20700;-74
2022/09/06 13:52:28;;;;;;;5.47;4.95;;;;;;;;;;5051998;28;20198;-75
2022/09/06 13:54:57;;;;;;;5.78;4.95;;;;;;;;;;5052188;28;20210;-76
2022/09/06 13:57:26;;;;;;;7.05;4.75;;;;;;;;;;5049388;28;20253;-76
2022/09/06 13:59:54;;;;;;;5.35;4.85;;;;;;;;;;5051818;28;20272;-75
2022/09/06 14:02:23;;;;;;;6.57;4.93;;;;;;;;;;5052042;28;20203;-74
2022/09/06 14:04:52;;;;;;;6.25;4.40;;;;;;;;;;5051442;28;20551;-75
2022/09/06 14:07:21;;;;;;;8.25;5.13;;;;;;;;;;5050788;28;20605;-76
2022/09/06 14:09:51;;;;;;;5.47;4.68;;;;;;;;;;5053373;28;20315;-77
2022/09/06 14:12:19;;;;;;;5.45;4.70;;;;;;;;;;5055867;28;20693;-77
2022/09/06 14:14:47;;;;;;;8.60;4.78;;;;;;;;;;5057016;28;20257;-75
2022/09/06 14:17:16;;;;;;;7.97;4.70;;;;;;;;;;5056691;28;20191;-76
2022/09/06 14:19:44;;;;;;;5.32;4.68;;;;;;;;;;5056796;28;20668;-75
2022/09/06 14:22:13;;;;;;;7.65;4.60;;;;;;;;;;5055947;28;20207;-76
2022/09/06 14:24:41;;;;;;;6.78;4.82;;;;;;;;;;5056404;28;20710;-76
2022/09/06 14:27:11;;;;;;;8.18;4.90;;;;;;;;;;5056044;28;20287;-76
2022/09/06 14:29:40;;;;;;;6.15;4.90;;;;;;;;;;5055980;28;20207;-76
2022/09/06 14:32:08;;;;;;;7.88;5.00;;;;;;;;;;5056344;28;20755;-76
2022/09/06 14:34:37;;;;;;;5.53;5.03;;;;;;;;;;5045938;28;20204;-76
2022/09/06 14:37:05;;;;;;;5.00;4.60;;;;;;;;;;5036408;28;20211;-76
2022/09/06 14:39:40;;;;;;;6.00;4.97;;;;;;;;;;5037114;28;20628;-76
2022/09/06 14:42:08;;;;;;;8.90;5.00;;;;;;;;;;5035974;28;20227;-76
2022/09/06 14:44:38;;;;;;;7.72;4.82;;;;;;;;;;5061640;28;20214;-75
2022/09/06 14:47:07;;;;;;;6.57;5.10;;;;;;;;;;5056004;28;20230;-76
2022/09/06 14:49:35;;;;;;;6.43;5.13;;;;;;;;;;5056226;28;20221;-76
2022/09/06 14:52:04;;;;;;;5.30;4.32;;;;;;;;;;5055571;28;20236;-76
2022/09/06 14:54:32;;;;;;;6.32;4.57;;;;;;;;;;5056087;28;20591;-75
2022/09/06 14:57:01;;;;;;;6.22;4.72;;;;;;;;;;5054788;28;20200;-75
2022/09/06 14:59:29;;;;;;;7.18;4.55;;;;;;;;;;5055377;28;20214;-76
2022/09/06 15:01:59;;;;;;;8.32;4.75;;;;;;;;;;5055334;28;20231;-75
2022/09/06 15:04:28;;;;;;;5.93;4.75;;;;;;;;;;5055746;28;20210;-76